Главная страница
METAR-TAF:

METAR-TAF

Аэропорты :

Кольцово

Екатеринбург, Россия

широта: 56-50N, долгота: 060-38E, высота над уровнем моря: 237 м

Текущие метеонаблюдения

Эта сводка был подготовлена 24 минут назад, в 06:30 UTC
Штиль
Температура -15°C
Влажность 85%
Давление 1022 hPa
Видимость: 4000 м
дымка

METAR: USSS 100630Z 00000MPS 4000 BR NSC M15/M17 Q1022 R08L/810350 NOSIG RMK QFE747/0996

Время: 11:54 (06:54 UTC)

Прогноз

Эта сводка был подготовлена 1 час и 57 минут назад, в 04:57 UTC
Прогноз действительный с 10-го 06 UTC до 11-го 06 UTC
Ветер 6 Узел от восточно-юго-восточный
Видимость: 3100 м
Отдельные облака на высоте 1100 фута
дымка
изменения
С 10-го 07 UTC до 10-го 09 UTC
Видимость: 6000 м
небольшой снег
изменения
С 10-го 11 UTC до 10-го 13 UTC
Видимость: 3100 м
дымка

TAF: USSS 100457Z 1006/1106 11003MPS 3100 BR SCT011 BECMG 1007/1009 6000 -SN BECMG 1011/1013 3100 BR

Метеонаблюдения и прогнозы для более 4000 аэропортов (сводки METAR и TAF).

Имеющиеся станции представлены на карте желтыми и красными точками.

Чтобы увидеть название станции, наведите на нее мышь.

Затем щелкните, чтобы увидеть метеонаблюдения и метеопрогнозы.

Управление картой: чтобы увеличить масштаб, щелкните зеленые кнопки с черным крестиком; чтобы уменьшить масштаб, щелкните зеленую кнопку с тире; для просмотра соседних карт щелкайте зеленые стрелки.


METAR-TAF: